createdAt,value
2017-10-29T00:00:13.998Z,5.70
2017-10-29T00:02:40.179Z,5.80
2017-10-29T00:05:07.152Z,5.00
2017-10-29T00:07:33.390Z,4.37
2017-10-29T00:09:59.538Z,5.80
2017-10-29T00:12:25.737Z,4.83
2017-10-29T00:14:51.966Z,4.90
2017-10-29T00:17:18.188Z,4.57
2017-10-29T00:19:44.351Z,5.60
2017-10-29T00:22:10.526Z,4.60
2017-10-29T00:24:36.697Z,4.23
2017-10-29T00:27:02.826Z,5.37
2017-10-29T00:29:29.029Z,3.80
2017-10-29T00:31:55.226Z,4.20
2017-10-29T00:34:22.195Z,4.80
2017-10-29T00:36:48.412Z,5.27
2017-10-29T00:39:14.668Z,4.70
2017-10-29T00:41:40.865Z,4.33
2017-10-29T00:44:07.871Z,4.60
2017-10-29T00:46:34.805Z,4.47
2017-10-29T00:49:00.971Z,5.00
2017-10-29T00:51:27.891Z,4.77
2017-10-29T00:53:54.857Z,3.57
2017-10-29T00:56:21.796Z,4.17
2017-10-29T00:58:48.781Z,4.30
2017-10-29T01:01:14.972Z,4.07
2017-10-29T01:03:41.970Z,3.10
2017-10-29T01:06:08.189Z,3.93
2017-10-29T01:08:34.371Z,3.30
2017-10-29T01:11:00.515Z,3.53
2017-10-29T01:13:27.453Z,3.80
2017-10-29T01:15:54.334Z,3.23
2017-10-29T01:18:20.524Z,3.10
2017-10-29T01:20:47.445Z,3.60
2017-10-29T01:23:13.649Z,3.00
2017-10-29T01:25:39.832Z,4.20
2017-10-29T01:28:06.821Z,2.90
2017-10-29T01:30:33.044Z,4.20
2017-10-29T01:32:59.261Z,3.57
2017-10-29T01:35:25.445Z,4.13
2017-10-29T01:37:52.356Z,3.83
2017-10-29T01:40:18.567Z,3.53
2017-10-29T01:42:44.753Z,4.33
2017-10-29T01:45:11.681Z,3.17
2017-10-29T01:47:37.908Z,3.67
2017-10-29T01:50:04.842Z,4.27
2017-10-29T01:52:31.042Z,3.63
2017-10-29T01:54:57.226Z,4.17
2017-10-29T01:57:31.005Z,4.10
2017-10-29T01:59:57.216Z,4.03
2017-10-29T02:02:23.416Z,5.10
2017-10-29T02:04:49.667Z,3.67
2017-10-29T02:07:15.849Z,4.50
2017-10-29T02:09:42.773Z,3.97
2017-10-29T02:12:08.942Z,4.50
2017-10-29T02:14:35.113Z,4.40
2017-10-29T02:17:01.285Z,4.73
2017-10-29T02:19:27.491Z,4.13
2017-10-29T02:21:54.484Z,4.60
2017-10-29T02:24:20.704Z,4.67
2017-10-29T02:26:47.231Z,4.20
2017-10-29T02:29:13.392Z,3.47
2017-10-29T02:31:39.609Z,3.60
2017-10-29T02:34:05.805Z,3.73
2017-10-29T02:36:31.962Z,3.53
2017-10-29T02:38:58.211Z,3.07
2017-10-29T02:41:24.584Z,2.30
2017-10-29T02:43:50.807Z,3.10
2017-10-29T02:46:17.693Z,2.90
2017-10-29T02:48:43.865Z,2.37
2017-10-29T02:51:10.030Z,2.43
2017-10-29T02:53:36.200Z,2.40
2017-10-29T02:56:02.377Z,2.20
2017-10-29T02:58:28.599Z,2.60
2017-10-29T03:00:54.823Z,2.70
2017-10-29T03:03:21.044Z,2.57
2017-10-29T03:05:47.980Z,2.80
2017-10-29T03:08:14.882Z,2.40
2017-10-29T03:10:41.071Z,2.60
2017-10-29T03:13:07.260Z,2.17
2017-10-29T03:15:34.229Z,2.30
2017-10-29T03:18:01.139Z,2.03
2017-10-29T03:20:27.341Z,2.60
2017-10-29T03:22:53.567Z,1.77
2017-10-29T03:25:19.797Z,2.20
2017-10-29T03:27:46.010Z,1.60
2017-10-29T03:30:12.227Z,1.67
2017-10-29T03:32:38.453Z,1.43
2017-10-29T03:35:05.355Z,1.47
2017-10-29T03:37:31.507Z,2.03
2017-10-29T03:39:57.708Z,5.70
2017-10-29T03:42:23.896Z,1.40
2017-10-29T03:44:50.061Z,1.77
2017-10-29T03:47:16.242Z,1.50
2017-10-29T03:49:42.426Z,1.97
2017-10-29T03:52:08.593Z,1.73
2017-10-29T03:54:35.596Z,1.50
2017-10-29T03:57:01.790Z,1.67
2017-10-29T03:59:27.986Z,1.37
2017-10-29T04:01:54.976Z,2.37
2017-10-29T04:04:21.163Z,1.73
2017-10-29T04:06:48.062Z,2.07
2017-10-29T04:09:14.206Z,1.90
2017-10-29T04:11:41.149Z,2.30
2017-10-29T04:14:07.322Z,2.00
2017-10-29T04:16:33.508Z,2.20
2017-10-29T04:18:59.731Z,1.93
2017-10-29T04:21:25.963Z,1.83
2017-10-29T04:23:52.176Z,1.40
2017-10-29T04:26:18.371Z,1.50
2017-10-29T04:28:44.566Z,1.63
2017-10-29T04:31:11.485Z,1.30
2017-10-29T04:33:37.649Z,1.60
2017-10-29T04:36:03.850Z,1.60
2017-10-29T04:38:30.059Z,1.30
2017-10-29T04:40:57.022Z,1.60
2017-10-29T04:43:23.177Z,1.47
2017-10-29T04:45:50.187Z,1.50
2017-10-29T04:48:16.411Z,1.70
2017-10-29T04:50:43.273Z,1.73
2017-10-29T04:53:09.481Z,1.60
2017-10-29T04:55:36.434Z,1.73
2017-10-29T04:58:02.622Z,1.40
2017-10-29T05:00:28.835Z,1.27
2017-10-29T05:02:55.058Z,1.90
2017-10-29T05:05:21.272Z,1.67
2017-10-29T05:07:48.252Z,1.87
2017-10-29T05:10:14.401Z,1.67
2017-10-29T05:12:40.591Z,1.57
2017-10-29T05:15:06.820Z,1.50
2017-10-29T05:17:33.085Z,1.57
2017-10-29T05:19:59.253Z,1.73
2017-10-29T05:22:26.177Z,1.23
2017-10-29T05:24:52.339Z,2.73
2017-10-29T05:27:18.495Z,1.73
2017-10-29T05:29:44.692Z,1.73
2017-10-29T05:32:11.626Z,2.23
2017-10-29T05:34:38.585Z,1.50
2017-10-29T05:37:04.733Z,1.87
2017-10-29T05:39:30.893Z,1.70
2017-10-29T05:41:57.072Z,2.17
2017-10-29T05:44:23.308Z,1.33
2017-10-29T05:46:49.511Z,1.97
2017-10-29T05:49:15.770Z,1.40
2017-10-29T05:51:41.990Z,0.97
2017-10-29T05:54:08.212Z,1.40
2017-10-29T05:56:34.420Z,1.33
2017-10-29T05:59:01.389Z,1.30
2017-10-29T06:01:27.570Z,1.17
2017-10-29T06:03:53.742Z,1.43
2017-10-29T06:06:19.929Z,1.13
2017-10-29T06:08:46.085Z,1.00
2017-10-29T06:11:13.109Z,0.83
2017-10-29T06:13:40.072Z,1.00
2017-10-29T06:16:06.985Z,1.00
2017-10-29T06:18:33.136Z,1.00
2017-10-29T06:21:00.090Z,0.90
2017-10-29T06:23:27.053Z,0.90
2017-10-29T06:25:53.231Z,0.97
2017-10-29T06:28:19.467Z,0.80
2017-10-29T06:30:45.702Z,1.23
2017-10-29T06:33:12.594Z,0.77
2017-10-29T06:35:38.820Z,0.80
2017-10-29T06:38:05.008Z,0.80
2017-10-29T06:40:31.963Z,0.97
2017-10-29T06:42:58.895Z,0.90
2017-10-29T06:45:25.858Z,0.90
2017-10-29T06:47:52.792Z,0.60
2017-10-29T06:50:19.688Z,0.70
2017-10-29T06:52:45.882Z,0.60
2017-10-29T06:55:12.108Z,1.33
2017-10-29T06:57:38.341Z,0.60
2017-10-29T07:00:04.556Z,0.50
2017-10-29T07:02:31.584Z,0.50
2017-10-29T07:04:58.554Z,0.70
2017-10-29T07:07:24.795Z,0.50
2017-10-29T07:09:50.917Z,0.60
2017-10-29T07:12:17.129Z,0.50
2017-10-29T07:14:44.076Z,0.53
2017-10-29T07:17:10.289Z,0.50
2017-10-29T07:19:37.284Z,0.50
2017-10-29T07:22:03.522Z,0.60
2017-10-29T07:24:29.742Z,0.60
2017-10-29T07:26:55.901Z,0.50
2017-10-29T07:29:22.109Z,0.50
2017-10-29T07:31:48.345Z,0.50
2017-10-29T07:34:14.570Z,0.50
2017-10-29T07:36:40.845Z,0.50
2017-10-29T07:39:07.803Z,0.50
2017-10-29T07:41:34.036Z,0.50
2017-10-29T07:44:00.187Z,0.57
2017-10-29T07:46:26.314Z,0.60
2017-10-29T07:48:52.556Z,0.57
2017-10-29T07:51:18.713Z,0.50
2017-10-29T07:53:44.850Z,0.67
2017-10-29T07:56:11.835Z,0.70
2017-10-29T07:58:38.035Z,0.70
2017-10-29T08:01:04.288Z,0.77
2017-10-29T08:03:30.466Z,0.80
2017-10-29T08:05:56.689Z,1.63
2017-10-29T08:08:22.858Z,0.80
2017-10-29T08:10:49.135Z,0.90
2017-10-29T08:13:16.082Z,0.67
2017-10-29T08:15:42.317Z,0.90
2017-10-29T08:18:08.512Z,1.07
2017-10-29T08:20:34.712Z,0.70
2017-10-29T08:23:00.876Z,0.70
2017-10-29T08:25:27.082Z,1.00
2017-10-29T08:27:53.340Z,0.73
2017-10-29T08:30:20.273Z,0.70
2017-10-29T08:32:46.470Z,1.10
2017-10-29T08:35:12.640Z,3.93
2017-10-29T08:37:38.856Z,0.93
2017-10-29T08:40:05.089Z,0.90
2017-10-29T08:42:31.305Z,0.83
2017-10-29T08:44:57.483Z,0.80
2017-10-29T08:47:24.421Z,0.90
2017-10-29T08:49:50.647Z,1.03
2017-10-29T08:52:16.847Z,1.20
2017-10-29T08:54:43.017Z,0.90
2017-10-29T08:57:09.954Z,0.90
2017-10-29T08:59:36.892Z,1.00
2017-10-29T09:02:03.142Z,1.03
2017-10-29T09:04:30.037Z,1.67
2017-10-29T09:06:56.182Z,0.80
2017-10-29T09:09:22.400Z,1.10
2017-10-29T09:11:48.596Z,0.93
2017-10-29T09:14:14.751Z,2.27
2017-10-29T09:16:40.947Z,1.00
2017-10-29T09:19:07.148Z,1.10
2017-10-29T09:21:34.109Z,1.50
2017-10-29T09:24:00.332Z,1.70
2017-10-29T09:26:26.517Z,2.07
2017-10-29T09:28:53.396Z,1.30
2017-10-29T09:31:20.329Z,1.40
2017-10-29T09:33:47.240Z,1.60
2017-10-29T09:36:13.390Z,1.27
2017-10-29T09:38:39.604Z,0.90
2017-10-29T09:41:05.803Z,1.90
2017-10-29T09:43:32.004Z,1.30
2017-10-29T09:45:58.230Z,1.00
2017-10-29T09:48:24.454Z,1.73
2017-10-29T09:50:51.337Z,1.20
2017-10-29T09:53:17.560Z,1.20
2017-10-29T09:55:43.761Z,2.70
2017-10-29T09:58:10.041Z,1.40
2017-10-29T10:00:37.062Z,1.60
2017-10-29T10:03:03.316Z,1.70
2017-10-29T10:05:29.522Z,1.40
2017-10-29T10:07:55.702Z,1.37
2017-10-29T10:10:22.622Z,2.20
2017-10-29T10:12:48.798Z,1.40
2017-10-29T10:15:15.036Z,2.07
2017-10-29T10:17:41.233Z,1.67
2017-10-29T10:20:08.202Z,1.57
2017-10-29T10:22:34.444Z,1.50
2017-10-29T10:25:00.608Z,2.23
2017-10-29T10:27:26.775Z,1.30
2017-10-29T10:29:53.682Z,1.33
2017-10-29T10:32:19.892Z,1.63
2017-10-29T10:34:46.120Z,1.40
2017-10-29T10:37:12.288Z,2.00
2017-10-29T10:39:39.269Z,2.30
2017-10-29T10:42:05.408Z,2.57
2017-10-29T10:44:31.570Z,2.37
2017-10-29T10:46:57.753Z,1.93
2017-10-29T10:49:23.942Z,2.97
2017-10-29T10:51:50.895Z,1.90
2017-10-29T10:54:17.140Z,2.97
2017-10-29T10:56:43.334Z,2.73
2017-10-29T10:59:10.255Z,2.00
2017-10-29T11:01:36.401Z,1.80
2017-10-29T11:04:02.604Z,1.93
2017-10-29T11:06:28.762Z,2.70
2017-10-29T11:08:55.630Z,2.87
2017-10-29T11:11:21.823Z,2.13
2017-10-29T11:13:48.009Z,1.83
2017-10-29T11:16:14.209Z,1.93
2017-10-29T11:18:40.453Z,1.80
2017-10-29T11:21:06.677Z,2.50
2017-10-29T11:23:32.869Z,2.30
2017-10-29T11:25:59.787Z,1.67
2017-10-29T11:28:25.987Z,2.47
2017-10-29T11:30:52.168Z,1.50
2017-10-29T11:33:19.095Z,2.57
2017-10-29T11:35:45.248Z,2.50
2017-10-29T11:38:12.157Z,1.70
2017-10-29T11:40:38.340Z,1.67
2017-10-29T11:43:04.506Z,1.73
2017-10-29T11:45:30.686Z,1.50
2017-10-29T11:47:56.849Z,2.33
2017-10-29T11:50:23.093Z,1.83
2017-10-29T11:52:49.331Z,1.97
2017-10-29T11:55:16.209Z,1.83
2017-10-29T11:57:43.180Z,2.47
2017-10-29T12:00:09.368Z,1.80
2017-10-29T12:02:36.328Z,2.30
2017-10-29T12:05:03.283Z,2.20
2017-10-29T12:07:29.466Z,1.60
2017-10-29T12:09:55.693Z,2.43
2017-10-29T12:12:21.987Z,1.67
2017-10-29T12:14:48.215Z,2.37
2017-10-29T12:17:14.381Z,1.77
2017-10-29T12:19:40.580Z,2.50
2017-10-29T12:22:06.772Z,2.10
2017-10-29T12:24:32.942Z,2.00
2017-10-29T12:26:59.180Z,2.80
2017-10-29T12:29:25.347Z,1.83
2017-10-29T12:31:52.232Z,2.37
2017-10-29T12:34:18.470Z,1.90
2017-10-29T12:36:44.645Z,2.00
2017-10-29T12:39:11.600Z,2.13
2017-10-29T12:41:38.512Z,2.00
2017-10-29T12:44:04.629Z,2.70
2017-10-29T12:46:30.832Z,2.50
2017-10-29T12:48:57.049Z,2.40
2017-10-29T12:51:23.187Z,2.20
2017-10-29T12:53:49.428Z,2.43
2017-10-29T12:56:15.598Z,3.03
2017-10-29T12:58:42.524Z,2.40
2017-10-29T13:01:08.706Z,1.93
2017-10-29T13:03:34.862Z,2.93
2017-10-29T13:06:01.082Z,2.80
2017-10-29T13:08:27.318Z,2.20
2017-10-29T13:10:53.540Z,2.10
2017-10-29T13:13:19.722Z,3.37
2017-10-29T13:15:45.869Z,3.17
2017-10-29T13:18:12.092Z,1.50
2017-10-29T13:20:38.249Z,1.80
2017-10-29T13:23:04.412Z,3.17
2017-10-29T13:25:31.341Z,1.80
2017-10-29T13:27:57.532Z,1.60
2017-10-29T13:30:23.686Z,1.97
2017-10-29T13:32:49.850Z,2.73
2017-10-29T13:35:16.751Z,2.10
2017-10-29T13:37:42.941Z,2.50
2017-10-29T13:40:09.100Z,1.87
2017-10-29T13:42:35.323Z,1.90
2017-10-29T13:45:01.556Z,2.50
2017-10-29T13:47:27.742Z,2.67
2017-10-29T13:49:54.704Z,2.57
2017-10-29T13:52:20.893Z,2.80
2017-10-29T13:54:47.067Z,3.03
2017-10-29T13:57:13.274Z,2.40
2017-10-29T13:59:40.205Z,2.50
2017-10-29T14:02:07.128Z,2.03
2017-10-29T14:04:33.313Z,2.00
2017-10-29T14:06:59.478Z,2.90
2017-10-29T14:09:25.675Z,2.73
2017-10-29T14:11:51.905Z,1.87
2017-10-29T14:14:18.102Z,2.63
2017-10-29T14:16:44.325Z,2.10
2017-10-29T14:19:11.377Z,2.10
2017-10-29T14:21:37.561Z,1.70
2017-10-29T14:24:03.852Z,1.90
2017-10-29T14:26:30.074Z,1.30
2017-10-29T14:28:56.336Z,1.90
2017-10-29T14:31:23.318Z,1.97
2017-10-29T14:33:50.261Z,1.30
2017-10-29T14:36:16.464Z,1.87
2017-10-29T14:38:42.661Z,1.80
2017-10-29T14:41:08.860Z,1.60
2017-10-29T14:43:35.089Z,1.90
2017-10-29T14:46:01.337Z,2.23
2017-10-29T14:48:27.564Z,1.73
2017-10-29T14:50:53.796Z,1.90
2017-10-29T14:53:20.020Z,2.60
2017-10-29T14:55:46.171Z,2.00
2017-10-29T14:58:12.396Z,1.97
2017-10-29T15:00:38.617Z,1.97
2017-10-29T15:03:04.816Z,1.87
2017-10-29T15:05:31.036Z,2.20
2017-10-29T15:07:57.952Z,3.43
2017-10-29T15:10:24.118Z,3.77
2017-10-29T15:12:51.061Z,2.67
2017-10-29T15:15:17.261Z,2.47
2017-10-29T15:17:44.188Z,2.73
2017-10-29T15:20:10.376Z,4.10
2017-10-29T15:22:36.558Z,3.50
2017-10-29T15:25:03.433Z,5.57
2017-10-29T15:27:30.415Z,4.80
2017-10-29T15:29:56.608Z,6.93
2017-10-29T15:32:22.839Z,3.47
2017-10-29T15:34:49.001Z,1.63
2017-10-29T15:37:15.260Z,2.10
2017-10-29T15:39:41.422Z,3.33
2017-10-29T15:42:08.414Z,3.00
2017-10-29T15:44:34.648Z,3.20
2017-10-29T15:47:00.885Z,2.40
2017-10-29T15:49:27.097Z,2.00
2017-10-29T15:51:54.000Z,2.57
2017-10-29T15:54:20.277Z,3.30
2017-10-29T15:56:47.221Z,2.40
2017-10-29T15:59:14.165Z,1.90
2017-10-29T16:01:40.320Z,3.17
2017-10-29T16:04:06.493Z,2.60
2017-10-29T16:06:33.120Z,2.60
2017-10-29T16:08:59.318Z,2.00
2017-10-29T16:11:26.249Z,1.83
2017-10-29T16:13:52.435Z,2.57
2017-10-29T16:16:18.617Z,1.90
2017-10-29T16:18:45.518Z,2.57
2017-10-29T16:21:12.052Z,2.30
2017-10-29T16:23:38.253Z,2.10
2017-10-29T16:26:04.504Z,3.77
2017-10-29T16:28:30.696Z,4.03
2017-10-29T16:30:56.877Z,2.40
2017-10-29T16:33:23.049Z,2.87
2017-10-29T16:35:49.934Z,4.17
2017-10-29T16:38:16.093Z,2.67
2017-10-29T16:40:42.231Z,3.43
2017-10-29T16:43:09.183Z,3.90
2017-10-29T16:45:36.146Z,3.00
2017-10-29T16:48:02.349Z,4.70
2017-10-29T16:50:29.305Z,3.20
2017-10-29T16:52:56.169Z,2.53
2017-10-29T16:55:22.377Z,4.10
2017-10-29T16:57:49.273Z,3.33
2017-10-29T17:00:15.530Z,3.93
2017-10-29T17:02:42.532Z,5.67
2017-10-29T17:05:08.745Z,20.60
2017-10-29T17:07:34.917Z,7.60
2017-10-29T17:10:01.116Z,3.60
2017-10-29T17:12:27.270Z,3.10
2017-10-29T17:14:53.468Z,2.53
2017-10-29T17:17:19.671Z,2.80
2017-10-29T17:19:45.809Z,2.90
2017-10-29T17:22:12.032Z,2.13
2017-10-29T17:24:38.177Z,1.80
2017-10-29T17:27:04.396Z,2.47
2017-10-29T17:29:30.600Z,1.93
2017-10-29T17:31:56.837Z,3.20
2017-10-29T17:34:23.035Z,2.43
2017-10-29T17:36:49.945Z,3.20
2017-10-29T17:39:16.114Z,3.07
2017-10-29T17:41:43.061Z,1.70
2017-10-29T17:44:10.066Z,2.10
2017-10-29T17:46:36.265Z,2.30
2017-10-29T17:49:02.462Z,2.80
2017-10-29T17:51:29.358Z,5.30
2017-10-29T17:53:55.600Z,1.97
2017-10-29T17:56:21.845Z,2.20
2017-10-29T17:58:48.029Z,2.13
2017-10-29T18:01:14.247Z,2.67
2017-10-29T18:03:40.449Z,2.20
2017-10-29T18:06:07.424Z,3.13
2017-10-29T18:08:33.616Z,2.20
2017-10-29T18:10:59.786Z,1.87
2017-10-29T18:13:25.929Z,1.90
2017-10-29T18:15:52.096Z,1.80
2017-10-29T18:18:18.281Z,2.50
2017-10-29T18:20:44.498Z,1.80
2017-10-29T18:23:10.661Z,1.77
2017-10-29T18:25:37.639Z,1.90
2017-10-29T18:28:04.624Z,2.00
2017-10-29T18:30:30.833Z,1.67
2017-10-29T18:32:57.108Z,2.07
2017-10-29T18:35:23.328Z,1.30
2017-10-29T18:37:49.537Z,2.07
2017-10-29T18:40:15.727Z,2.13
2017-10-29T18:42:42.636Z,1.73
2017-10-29T18:45:09.738Z,2.27
2017-10-29T18:47:35.995Z,1.87
2017-10-29T18:50:02.185Z,1.83
2017-10-29T18:52:28.354Z,1.87
2017-10-29T18:54:54.526Z,1.87
2017-10-29T18:57:21.429Z,2.27
2017-10-29T18:59:47.737Z,1.80
2017-10-29T19:02:14.006Z,1.67
2017-10-29T19:04:40.977Z,1.93
2017-10-29T19:07:07.883Z,2.37
2017-10-29T19:09:34.040Z,1.57
2017-10-29T19:12:00.964Z,1.90
2017-10-29T19:14:27.955Z,1.27
2017-10-29T19:16:54.128Z,2.30
2017-10-29T19:19:20.357Z,1.90
2017-10-29T19:21:46.578Z,2.20
2017-10-29T19:24:12.810Z,2.40
2017-10-29T19:26:38.985Z,2.70
2017-10-29T19:29:05.877Z,2.10
2017-10-29T19:31:32.016Z,1.97
2017-10-29T19:33:58.214Z,1.70
2017-10-29T19:36:24.440Z,2.63
2017-10-29T19:38:50.668Z,2.03
2017-10-29T19:41:16.928Z,2.17
2017-10-29T19:43:43.837Z,2.17
2017-10-29T19:46:10.046Z,2.20
2017-10-29T19:48:36.259Z,2.27
2017-10-29T19:51:03.197Z,2.33
2017-10-29T19:53:30.156Z,2.00
2017-10-29T19:55:56.323Z,2.20
2017-10-29T19:58:22.521Z,1.60
2017-10-29T20:00:48.722Z,1.80
2017-10-29T20:03:14.911Z,2.20
2017-10-29T20:05:41.074Z,1.83
2017-10-29T20:08:08.030Z,2.00
2017-10-29T20:10:35.003Z,1.30
2017-10-29T20:13:01.210Z,2.23
2017-10-29T20:15:28.274Z,1.80
2017-10-29T20:17:54.444Z,3.10
2017-10-29T20:20:20.662Z,1.80
2017-10-29T20:22:46.829Z,1.67
2017-10-29T20:25:13.086Z,2.20
2017-10-29T20:27:39.268Z,1.87
2017-10-29T20:30:06.169Z,1.83
2017-10-29T20:32:32.361Z,1.83
2017-10-29T20:34:59.361Z,2.47
2017-10-29T20:37:25.546Z,2.00
2017-10-29T20:39:52.447Z,1.43
2017-10-29T20:42:18.628Z,2.10
2017-10-29T20:44:44.826Z,1.77
2017-10-29T20:47:11.020Z,1.83
2017-10-29T20:49:37.228Z,2.43
2017-10-29T20:52:03.384Z,1.50
2017-10-29T20:54:30.319Z,2.10
2017-10-29T20:56:56.557Z,2.20
2017-10-29T20:59:22.767Z,2.30
2017-10-29T21:01:48.961Z,2.30
2017-10-29T21:04:15.948Z,2.67
2017-10-29T21:06:42.196Z,2.80
2017-10-29T21:09:08.392Z,2.20
2017-10-29T21:11:34.592Z,2.20
2017-10-29T21:14:00.735Z,1.83
2017-10-29T21:16:26.963Z,1.93
2017-10-29T21:18:53.118Z,2.37
2017-10-29T21:21:19.377Z,2.70
2017-10-29T21:23:46.270Z,2.23
2017-10-29T21:26:12.426Z,2.20
2017-10-29T21:28:38.664Z,2.10
2017-10-29T21:31:04.824Z,2.23
2017-10-29T21:33:31.717Z,2.00
2017-10-29T21:35:57.888Z,2.50
2017-10-29T21:38:24.849Z,1.40
2017-10-29T21:40:51.055Z,1.70
2017-10-29T21:43:17.969Z,2.70
2017-10-29T21:45:44.169Z,1.50
2017-10-29T21:48:10.338Z,1.73
2017-10-29T21:50:36.509Z,2.53
2017-10-29T21:53:02.726Z,2.27
2017-10-29T21:55:28.861Z,1.87
2017-10-29T21:57:54.961Z,2.00
2017-10-29T22:00:21.878Z,2.53
2017-10-29T22:02:48.118Z,2.03
2017-10-29T22:05:15.089Z,1.97
2017-10-29T22:07:41.989Z,2.03
2017-10-29T22:10:08.204Z,2.27
2017-10-29T22:12:34.370Z,2.60
2017-10-29T22:15:00.551Z,2.10
2017-10-29T22:17:26.725Z,2.47
2017-10-29T22:19:52.960Z,2.20
2017-10-29T22:22:19.917Z,2.33
2017-10-29T22:24:46.905Z,2.20
2017-10-29T22:27:13.128Z,1.40
2017-10-29T22:29:39.315Z,2.53
2017-10-29T22:32:06.256Z,1.50
2017-10-29T22:34:33.183Z,2.70
2017-10-29T22:36:59.396Z,1.90
2017-10-29T22:39:25.672Z,1.73
2017-10-29T22:41:51.895Z,2.40
2017-10-29T22:44:18.856Z,1.77
2017-10-29T22:46:45.076Z,1.73
2017-10-29T22:49:11.281Z,1.63
2017-10-29T22:51:38.162Z,2.10
2017-10-29T22:54:04.379Z,1.70
2017-10-29T22:56:30.530Z,2.47
2017-10-29T22:58:56.708Z,1.83
2017-10-29T23:01:23.714Z,2.70
2017-10-29T23:03:49.902Z,2.77
2017-10-29T23:06:29.223Z,2.27
2017-10-29T23:08:56.184Z,2.20
2017-10-29T23:11:22.395Z,3.00
2017-10-29T23:13:49.321Z,2.23
2017-10-29T23:16:15.444Z,1.70
2017-10-29T23:18:41.621Z,3.13
2017-10-29T23:21:07.842Z,2.40
2017-10-29T23:23:33.984Z,3.07
2017-10-29T23:26:00.140Z,2.40
2017-10-29T23:28:26.265Z,2.10
2017-10-29T23:30:52.410Z,2.57
2017-10-29T23:33:18.600Z,2.40
2017-10-29T23:35:44.840Z,1.90
2017-10-29T23:38:11.060Z,2.43
2017-10-29T23:40:37.256Z,2.20
2017-10-29T23:43:03.471Z,2.63
2017-10-29T23:45:30.398Z,2.17
2017-10-29T23:47:56.575Z,2.60
2017-10-29T23:50:22.781Z,2.50
2017-10-29T23:52:49.766Z,2.50
2017-10-29T23:55:15.943Z,2.20
2017-10-29T23:57:42.870Z,2.37
